Startpagina
METAR-TAF:

METAR-TAF

Vliegvelden :

Latacunga, Ecuador

breedte: 00-55S, lengte: 078-37W, hoogte: 2785 m

Actueel weer

Dit bericht is 26 minuten geleden gemaakt, om 21:00 UTC
Wind 20 kt uit het zuiden
Temperatuur 14°C
Vochtigheid 63%
Druk 1028 hPa
Zicht 10 km of meer
Verspreide wolken op 3000 ft

METAR: SELT 182100Z 17020KT 9999 SCT030 14/07 Q1028

Tijdstip: 16:26 (21:26 UTC)

Verwachting

Dit bericht is 5 uur en het 1 minuten geleden gemaakt, om 16:25 UTC
Verwachting geldig van 18 om 18 UTC tot 19 om 18 UTC
Wind 18 kt uit het zuiden
Zicht 10 km of meer
Gebroken wolken op 3000 ft
Wijzigt naar
van 18 om 23 UTC tot 19 om 01 UTC
Wind 8 kt uit het zuiden
Wijzigt naar
van 19 om 04 UTC tot 19 om 06 UTC
Weinig wolken op 1000 ft
Gebroken wolken op 3000 ft
Wijzigt naar
van 19 om 13 UTC tot 19 om 15 UTC
Wind 18 kt uit het zuiden

TAF: SELT 181625Z 1818/1918 18018KT 9999 BKN030 BECMG 1823/1901 18008KT BECMG 1904/1906 FEW010 BKN030 BECMG 1913/1915 18018KT TX16/1819Z TN07/1911Z

Waarnemingen en weersverwachtingen van meer dan 4000 vliegvelden (METAR en TAF).

De beschikbare stations zijn de gele en rode punten op de kaart.

Ga met uw muis naar het station om de naam te zien.

Klik dan om waarnemingen en weersverwachtingen te zien.

kaart wijzigen: klik op de groene knoppen met een zwart kruis om in te zoomen, op de groene knop met een streepje om uit te zoomen of op de groene pijlen voor aangrenzende kaarten.


METAR-TAF: